Aviation Digital Data Service (ADDS)

Output produced by METARs form (1028 UTC 28 July 2016)
found at http://www.aviationweather.gov/adds/metars/
 
KCXY 280956Z AUTO 24003KT 10SM FEW110 22/19 A2991 RMK AO2 SLP128 T02220194
KCXY 280856Z AUTO 00000KT 10SM BKN120 22/19 A2991 RMK AO2 SLP126 T02220194 57004
KCXY 280756Z AUTO 00000KT 10SM SCT120 23/19 A2991 RMK AO2 SLP126 T02330189
KCXY 280656Z AUTO 00000KT 10SM CLR 23/19 A2992 RMK AO2 SLP130 T02330189
KCXY 280556Z AUTO 24003KT 10SM CLR 23/19 A2992 RMK AO2 SLP130 T02330189 10306 20233 50001
KCXY 280456Z AUTO 24004KT 10SM CLR 24/19 A2992 RMK AO2 SLP131 T02390189 403390222
KCXY 280356Z AUTO 22003KT 10SM CLR 24/19 A2992 RMK AO2 SLP129 T02440189
KCXY 280256Z AUTO 00000KT 10SM CLR 26/19 A2992 RMK AO2 SLP129 T02610194 51003
KCXY 280156Z AUTO 20003KT 10SM CLR 26/19 A2992 RMK AO2 SLP129 T02610194
KCXY 280056Z 16005KT 10SM CLR 29/17 A2991 RMK AO2 SLP125 T02940172
KCXY 272356Z 17005KT 10SM CLR 31/17 A2991 RMK AO2 SLP125 T03110172 10339 20306 55001
KCXY 272256Z 11004KT 10SM FEW075 32/17 A2990 RMK AO2 SLP123 T03220167
KCXY 272156Z 26003KT 10SM FEW075 33/15 A2990 RMK AO2 SLP124 T03280150
KCXY 272056Z VRB04KT 10SM FEW100 33/15 A2991 RMK AO2 SLP126 T03330150 58015
KCXY 271956Z 33006KT 10SM FEW077 FEW110 33/15 A2993 RMK AO2 SLP133 T03330150
KCXY 271856Z COR 32008KT 10SM FEW075 33/14 A2994 RMK AO2 SLP136 T03280144
KCXY 271756Z 31006KT 10SM SCT110 33/16 A2996 RMK AO2 SLP141 T03280156 10333 20267 58008
KCXY 271656Z 00000KT 10SM CLR 31/16 A2997 RMK AO2 SLP146 T03110161
KCXY 271556Z VRB05KT 10SM CLR 31/17 A2997 RMK AO2 SLP149 T03060167
KCXY 271456Z 09007KT 10SM CLR 30/16 A2998 RMK AO2 SLP149 T03000156 57002
KCXY 271356Z VRB05KT 10SM CLR 28/17 A2998 RMK AO2 SLP152 T02830167
KCXY 271256Z 09005KT 10SM CLR 28/17 A2998 RMK AO2 SLP150 T02780167
KCXY 271156Z VRB04KT 10SM FEW120 27/16 A2999 RMK AO2 SLP151 T02670161 10272 20222 51010
KCXY 271056Z 00000KT 10SM CLR 23/18 A2998 RMK AO2 SLP149 T02330183
KCXY 270956Z AUTO 00000KT 10SM CLR 23/18 A2997 RMK AO2 SLP145 T02330178
KCXY 270856Z AUTO 00000KT 10SM CLR 23/18 A2996 RMK AO2 SLP142 T02330183 53005
KCXY 270756Z AUTO 00000KT 10SM CLR 24/18 A2995 RMK AO2 SLP139 T02390183
KCXY 270656Z AUTO VRB03KT 10SM CLR 25/17 A2995 RMK AO2 SLP138 T02500172
KCXY 270556Z AUTO 28004KT 10SM CLR 26/18 A2994 RMK AO2 SLP136 T02560183 10311 20250 51006
KCXY 270456Z AUTO 26003KT 10SM CLR 26/21 A2994 RMK AO2 SLP136 T02560206 403500222
KCXY 270356Z AUTO 00000KT 10SM CLR 26/22 A2993 RMK AO2 SLP132 T02610217
KCXY 270256Z AUTO 00000KT 10SM CLR 27/22 A2992 RMK AO2 SLP130 T02720217 50008
KCXY 270156Z AUTO 26003KT 10SM CLR 28/22 A2993 RMK AO2 SLP134 T02780217
KCXY 270056Z 00000KT 10SM CLR 29/21 A2990 RMK AO2 SLP124 T02940211
KCXY 262356Z 00000KT 10SM CLR 31/21 A2990 RMK AO2 SLP122 T03110206 10350 20311 53003
KCXY 262256Z 18005KT 10SM CLR 32/21 A2988 RMK AO2 SLP118 T03220206